32.9°F
Current conditions from King Hill
Updated every 5 minutes
 
  Thursday April 24, 2014

Station Historical Data
Daily Summary for August 12, 2012 Units:  Metric    English   Both
« Previous Day
Next Day »
Daily Weekly Monthly Yearly Custom
  High: Low: Average:
Temperature: 27.8 °C 16.6 °C 21.4 °C
Dew Point: 21 °C 15.2 °C 17.7 °C
Humidity: 97% 50% 81%
Wind Speed: 11.3km/h 1.6km/h 4.3km/h
Wind Gust: 29km/h - -
Wind- - SW
Pressure: 1011.1 hPa 1008.7 hPa -
Precipitation: 0 mm    
Historical Graphs
 
 
Tabular Data for August 12, 2012
Time Temperature Dew Point Pressure Wind Wind Speed Wind Gust Humidity Daily Rainfall
00:04 19.7 °C 19 °C 1010 hPa SSW 1.6 km/h 6.4 km/h 96% 0 mm
00:09 19.6 °C 19.1 °C 1010 hPa SSW 1.6 km/h 11.3 km/h 97% 0 mm
00:14 19.6 °C 19.1 °C 1010 hPa SW 1.6 km/h 11.3 km/h 97% 0 mm
00:19 19.4 °C 18.9 °C 1010 hPa Calm   9.7 km/h 97% 0 mm
00:24 19.3 °C 18.7 °C 1009.7 hPa Calm   4.8 km/h 96% 0 mm
00:29 19.2 °C 18.6 °C 1010 hPa Calm     96% 0 mm
00:34 19.1 °C 18.4 °C 1010 hPa Calm     96% 0 mm
00:39 19.1 °C 18.4 °C 1010 hPa Calm     96% 0 mm
00:49 18.9 °C 18.3 °C 1010 hPa Calm   3.2 km/h 96% 0 mm
00:54 18.9 °C 18.3 °C 1010 hPa Calm   3.2 km/h 96% 0 mm
00:59 18.9 °C 18.2 °C 1010 hPa Calm     96% 0 mm
01:04 18.8 °C 18.1 °C 1010 hPa Calm     96% 0 mm
01:09 18.7 °C 18 °C 1010 hPa Calm     96% 0 mm
01:14 18.7 °C 18 °C 1010 hPa Calm     96% 0 mm
01:19 18.7 °C 18.2 °C 1010 hPa Calm     97% 0 mm
01:24 18.7 °C 18.2 °C 1010 hPa Calm     97% 0 mm
01:29 18.8 °C 18.3 °C 1010 hPa Calm     97% 0 mm
01:34 18.7 °C 18.2 °C 1010 hPa Calm     97% 0 mm
01:39 18.7 °C 18.2 °C 1010 hPa Calm     97% 0 mm
01:44 18.8 °C 18.3 °C 1010 hPa Calm     97% 0 mm
01:49 18.8 °C 18.3 °C 1010 hPa Calm     97% 0 mm
01:54 18.7 °C 18.1 °C 1009.7 hPa Calm     96% 0 mm
01:59 18.7 °C 18 °C 1010 hPa Calm     96% 0 mm
02:04 18.6 °C 17.9 °C 1010 hPa Calm     96% 0 mm
02:09 18.6 °C 17.9 °C 1009.7 hPa Calm     96% 0 mm
02:14 18.4 °C 17.9 °C 1009.7 hPa Calm     97% 0 mm
02:19 18.4 °C 17.9 °C 1009.7 hPa Calm     97% 0 mm
02:24 18.4 °C 17.9 °C 1009.7 hPa Calm     97% 0 mm
02:29 18.3 °C 17.6 °C 1009.7 hPa Calm     96% 0 mm
02:34 18.2 °C 17.5 °C 1009.7 hPa Calm     96% 0 mm
02:39 18.1 °C 17.6 °C 1009.7 hPa Calm     97% 0 mm
02:44 18.1 °C 17.6 °C 1009.7 hPa Calm     97% 0 mm
02:49 18 °C 17.5 °C 1009.7 hPa Calm     97% 0 mm
02:54 17.9 °C 17.3 °C 1010 hPa Calm     96% 0 mm
02:59 17.9 °C 17.2 °C 1009.7 hPa Calm     96% 0 mm
03:04 17.8 °C 17.2 °C 1009.7 hPa Calm   3.2 km/h 96% 0 mm
03:09 17.9 °C 17.2 °C 1009.7 hPa Calm   3.2 km/h 96% 0 mm
03:14 17.9 °C 17.2 °C 1009.7 hPa Calm     96% 0 mm
03:19 18 °C 17.5 °C 1009.7 hPa Calm     97% 0 mm
03:24 18.1 °C 17.6 °C 1009.7 hPa Calm     97% 0 mm
03:29 18.3 °C 17.8 °C 1009.7 hPa Calm   1.6 km/h 97% 0 mm
03:34 18.5 °C 18 °C 1009.7 hPa Calm   1.6 km/h 97% 0 mm
03:44 18.4 °C 17.9 °C 1009.7 hPa Calm     97% 0 mm
03:49 18.3 °C 17.8 °C 1009.7 hPa Calm     97% 0 mm
03:54 18.3 °C 17.8 °C 1010 hPa Calm     97% 0 mm
03:59 18.3 °C 17.8 °C 1009.7 hPa Calm     97% 0 mm
04:04 18.3 °C 17.8 °C 1009.7 hPa Calm     97% 0 mm
04:09 18.3 °C 17.8 °C 1009.7 hPa Calm     97% 0 mm
04:14 18.3 °C 17.8 °C 1009.7 hPa Calm     97% 0 mm
04:19 18.2 °C 17.7 °C 1009.7 hPa Calm     97% 0 mm
04:24 18.2 °C 17.7 °C 1009.7 hPa Calm     97% 0 mm
04:29 18.1 °C 17.6 °C 1009.7 hPa Calm     97% 0 mm
04:34 18.1 °C 17.6 °C 1009.7 hPa Calm     97% 0 mm
04:39 18 °C 17.5 °C 1009.7 hPa Calm     97% 0 mm
04:44 17.9 °C 17.4 °C 1009.7 hPa Calm     97% 0 mm
04:49 17.9 °C 17.4 °C 1009.7 hPa Calm     97% 0 mm
04:54 17.9 °C 17.4 °C 1010 hPa Calm     97% 0 mm
04:59 18 °C 17.5 °C 1010 hPa Calm   3.2 km/h 97% 0 mm
05:04 18.1 °C 17.6 °C 1010 hPa Calm   3.2 km/h 97% 0 mm
05:09 18.2 °C 17.7 °C 1010 hPa Calm     97% 0 mm
05:14 18.3 °C 17.8 °C 1010 hPa Calm     97% 0 mm
05:19 18.3 °C 17.8 °C 1010 hPa Calm     97% 0 mm
05:24 18.3 °C 17.8 °C 1010 hPa Calm     97% 0 mm
05:29 18.3 °C 17.8 °C 1010 hPa Calm     97% 0 mm
05:34 18.4 °C 17.9 °C 1010 hPa Calm     97% 0 mm
05:39 18.4 °C 17.9 °C 1010 hPa Calm     97% 0 mm
05:44 18.4 °C 17.9 °C 1010 hPa Calm     97% 0 mm
05:49 18.5 °C 18 °C 1010 hPa Calm     97% 0 mm
05:54 18.6 °C 18.1 °C 1010 hPa Calm     97% 0 mm
05:59 18.6 °C 18.1 °C 1010.4 hPa Calm     97% 0 mm
06:04 18.4 °C 17.9 °C 1010.4 hPa Calm     97% 0 mm
06:09 18.4 °C 17.9 °C 1010.4 hPa Calm     97% 0 mm
06:14 18.4 °C 17.9 °C 1010.4 hPa Calm     97% 0 mm
06:19 18.6 °C 18.1 °C 1010.4 hPa Calm     97% 0 mm
06:24 18.7 °C 18.2 °C 1010.4 hPa Calm     97% 0 mm
06:29 18.7 °C 18.2 °C 1010 hPa Calm     97% 0 mm
06:34 18.9 °C 18.4 °C 1010.4 hPa Calm   1.6 km/h 97% 0 mm
06:39 19.2 °C 18.7 °C 1010.4 hPa Calm   1.6 km/h 97% 0 mm
06:44 19.3 °C 18.8 °C 1010.4 hPa Calm     97% 0 mm
06:49 19.4 °C 18.9 °C 1010.4 hPa Calm     97% 0 mm
06:54 19.6 °C 19.1 °C 1010.4 hPa Calm   1.6 km/h 97% 0 mm
06:59 19.7 °C 19.2 °C 1010.4 hPa Calm   4.8 km/h 97% 0 mm
07:04 19.7 °C 19.2 °C 1010.4 hPa SSW 1.6 km/h 6.4 km/h 97% 0 mm
07:14 19.7 °C 19.2 °C 1010.7 hPa SW 1.6 km/h 9.7 km/h 97% 0 mm
07:19 19.7 °C 19.2 °C 1010.7 hPa Calm   9.7 km/h 97% 0 mm
07:24 19.7 °C 19.2 °C 1010.7 hPa SSW 1.6 km/h 9.7 km/h 97% 0 mm
07:29 19.7 °C 19.2 °C 1010.7 hPa Calm   6.4 km/h 97% 0 mm
07:34 19.7 °C 19.2 °C 1010.7 hPa Calm   1.6 km/h 97% 0 mm
07:39 19.7 °C 19.2 °C 1010.7 hPa SW 4.8 km/h 9.7 km/h 97% 0 mm
07:44 19.7 °C 19.2 °C 1010.7 hPa Calm   9.7 km/h 97% 0 mm
07:49 19.7 °C 19.2 °C 1010.7 hPa Calm   4.8 km/h 97% 0 mm
07:54 19.7 °C 19.2 °C 1010.7 hPa Calm   9.7 km/h 97% 0 mm
07:59 19.7 °C 19.2 °C 1010.7 hPa SSW 3.2 km/h 11.3 km/h 97% 0 mm
08:04 19.7 °C 19.2 °C 1010.7 hPa SSW 3.2 km/h 11.3 km/h 97% 0 mm
08:09 19.7 °C 19.2 °C 1011.1 hPa WSW 1.6 km/h 9.7 km/h 97% 0 mm
08:14 19.7 °C 19.2 °C 1011.1 hPa WSW 1.6 km/h 6.4 km/h 97% 0 mm
08:19 19.7 °C 19.2 °C 1011.1 hPa SW 1.6 km/h 9.7 km/h 97% 0 mm
08:24 19.7 °C 19.2 °C 1011.1 hPa Calm   9.7 km/h 97% 0 mm
08:29 19.7 °C 19.2 °C 1011.1 hPa SSW 4.8 km/h 9.7 km/h 97% 0 mm
08:39 19.7 °C 19.2 °C 1011.1 hPa SW 3.2 km/h 11.3 km/h 97% 0 mm
08:44 19.7 °C 19.2 °C 1011.1 hPa Calm   11.3 km/h 97% 0 mm
08:49 19.7 °C 19.2 °C 1011.1 hPa Calm   11.3 km/h 97% 0 mm
08:54 19.7 °C 19.2 °C 1010.7 hPa SW 3.2 km/h 11.3 km/h 97% 0 mm
08:59 19.7 °C 19.2 °C 1011.1 hPa WSW 1.6 km/h 11.3 km/h 97% 0 mm
09:04 19.7 °C 19.2 °C 1010.7 hPa Calm   11.3 km/h 97% 0 mm
09:09 19.7 °C 19.2 °C 1010.7 hPa WSW 6.4 km/h 12.9 km/h 97% 0 mm
09:14 19.7 °C 19.2 °C 1011.1 hPa SW 4.8 km/h 12.9 km/h 97% 0 mm
09:19 19.7 °C 19.2 °C 1010.7 hPa SW 3.2 km/h 12.9 km/h 97% 0 mm
09:24 19.7 °C 19.2 °C 1010.7 hPa SSW 6.4 km/h 12.9 km/h 97% 0 mm
09:29 19.7 °C 19.2 °C 1010.7 hPa SSW 6.4 km/h 12.9 km/h 97% 0 mm
09:34 19.7 °C 19.2 °C 1010.7 hPa SW 1.6 km/h 12.9 km/h 97% 0 mm
09:39 19.7 °C 19.2 °C 1010.7 hPa SW 6.4 km/h 12.9 km/h 97% 0 mm
09:44 21.5 °C 21 °C 1010.7 hPa SSW 1.6 km/h 12.9 km/h 97% 0 mm
09:49 21.5 °C 20.8 °C 1010.7 hPa SSE 1.6 km/h 11.3 km/h 96% 0 mm
09:54 21.6 °C 20.8 °C 1010.7 hPa SSW 4.8 km/h 11.3 km/h 95% 0 mm
09:59 21.9 °C 20.9 °C 1010.7 hPa Calm   14.5 km/h 94% 0 mm
10:04 22.3 °C 20.9 °C 1010.7 hPa SSW 1.6 km/h 14.5 km/h 92% 0 mm
10:09 22.7 °C 20.9 °C 1010.7 hPa SSW 3.2 km/h 11.3 km/h 90% 0 mm
10:14 23 °C 20.6 °C 1010.7 hPa SSW 3.2 km/h 11.3 km/h 86% 0 mm
10:19 23.2 °C 20 °C 1010.7 hPa South 6.4 km/h 16.1 km/h 82% 0 mm
10:24 23.5 °C 20.4 °C 1010.7 hPa SW 1.6 km/h 16.1 km/h 83% 0 mm
10:29 23.5 °C 20.1 °C 1010.7 hPa SW 6.4 km/h 14.5 km/h 81% 0 mm
10:34 23.6 °C 19.9 °C 1010.4 hPa SSW 4.8 km/h 14.5 km/h 80% 0 mm
10:39 23.8 °C 20.8 °C 1010.4 hPa SSW 3.2 km/h 16.1 km/h 83% 0 mm
10:44 24.1 °C 20.2 °C 1010.4 hPa Calm   16.1 km/h 79% 0 mm
10:49 24.2 °C 19.4 °C 1010.4 hPa WSW 6.4 km/h 16.1 km/h 75% 0 mm
10:54 23.7 °C 19.4 °C 1010.4 hPa WSW 8 km/h 16.1 km/h 77% 0 mm
10:59 23.2 °C 19.4 °C 1010.4 hPa SSW 3.2 km/h 16.1 km/h 79% 0 mm
11:04 23.3 °C 19.4 °C 1010.4 hPa SSW 1.6 km/h 12.9 km/h 79% 0 mm
11:09 23.5 °C 19.1 °C 1010.4 hPa South 6.4 km/h 12.9 km/h 76% 0 mm
11:14 23.8 °C 18.7 °C 1010.4 hPa SW 6.4 km/h 16.1 km/h 73% 0 mm
11:19 24.4 °C 19 °C 1010.4 hPa WSW 9.7 km/h 16.1 km/h 72% 0 mm
11:24 24.7 °C 18.8 °C 1010.4 hPa SSW 6.4 km/h 16.1 km/h 70% 0 mm
11:29 24.7 °C 19.1 °C 1010 hPa SSW 4.8 km/h 22.5 km/h 71% 0 mm
11:34 24.7 °C 18.2 °C 1010 hPa SW 11.3 km/h 22.5 km/h 67% 0 mm
11:39 24.7 °C 18.4 °C 1010 hPa WSW 6.4 km/h 22.5 km/h 68% 0 mm
11:44 24.9 °C 18.8 °C 1010 hPa SW 8 km/h 22.5 km/h 69% 0 mm
11:49 24.9 °C 18.6 °C 1010 hPa SSW 4.8 km/h 17.7 km/h 68% 0 mm
11:54 25.2 °C 17.9 °C 1010 hPa South 9.7 km/h 22.5 km/h 64% 0 mm
11:59 25.2 °C 17.6 °C 1010 hPa SSW 9.7 km/h 22.5 km/h 63% 0 mm
12:04 25.3 °C 17.5 °C 1010 hPa SSW 9.7 km/h 29 km/h 62% 0 mm
12:09 25.2 °C 18.2 °C 1010 hPa WSW 4.8 km/h 29 km/h 65% 0 mm
12:14 25.3 °C 18.1 °C 1010 hPa SW 4.8 km/h 16.1 km/h 64% 0 mm
12:19 25.3 °C 18 °C 1010 hPa WSW 6.4 km/h 14.5 km/h 64% 0 mm
12:24 24.9 °C 17.9 °C 1009.7 hPa SW 4.8 km/h 16.1 km/h 65% 0 mm
12:29 25.2 °C 17.6 °C 1009.7 hPa SW 8 km/h 16.1 km/h 63% 0 mm
12:34 25.3 °C 18.1 °C 1009.7 hPa SSW 3.2 km/h 19.3 km/h 64% 0 mm
12:39 25.6 °C 18.6 °C 1009.7 hPa SW 1.6 km/h 19.3 km/h 65% 0 mm
12:44 25.2 °C 17.7 °C 1009.7 hPa WSW 4.8 km/h 14.5 km/h 63% 0 mm
12:49 25.1 °C 17.8 °C 1009.7 hPa West 9.7 km/h 14.5 km/h 64% 0 mm
12:54 25.4 °C 18.2 °C 1009.4 hPa WSW 6.4 km/h 20.9 km/h 64% 0 mm
12:59 25.4 °C 18.1 °C 1009.4 hPa South 3.2 km/h 20.9 km/h 64% 0 mm
13:04 25.2 °C 18.4 °C 1009.4 hPa SSW 3.2 km/h 14.5 km/h 66% 0 mm
13:09 25.6 °C 18 °C 1009.4 hPa WSW 4.8 km/h 17.7 km/h 63% 0 mm
13:14 25.9 °C 18.4 °C 1009.4 hPa SSW 1.6 km/h 17.7 km/h 63% 0 mm
13:19 26.3 °C 18.2 °C 1009.4 hPa WSW 6.4 km/h 14.5 km/h 61% 0 mm
13:24 26.1 °C 17.5 °C 1009.4 hPa SW 8 km/h 19.3 km/h 59% 0 mm
13:29 25.8 °C 17.7 °C 1009.4 hPa SW 3.2 km/h 19.3 km/h 61% 0 mm
13:34 25.5 °C 17.2 °C 1009.4 hPa WSW 4.8 km/h 12.9 km/h 60% 0 mm
13:39 25.7 °C 17.3 °C 1009.4 hPa SW 4.8 km/h 16.1 km/h 60% 0 mm
13:44 26.2 °C 17.6 °C 1009.4 hPa SW 6.4 km/h 16.1 km/h 59% 0 mm
13:49 26.2 °C 15.9 °C 1009.4 hPa WSW 4.8 km/h 16.1 km/h 53% 0 mm
13:54 25.8 °C 16.4 °C 1009.7 hPa SW 6.4 km/h 16.1 km/h 56% 0 mm
13:59 26.3 °C 17.4 °C 1009.4 hPa SW 3.2 km/h 12.9 km/h 58% 0 mm
14:04 26.8 °C 17.1 °C 1009.7 hPa SW 6.4 km/h 12.9 km/h 55% 0 mm
14:09 26.8 °C 17 °C 1009.7 hPa South 6.4 km/h 12.9 km/h 55% 0 mm
14:14 26.8 °C 17.6 °C 1009.7 hPa SW 4.8 km/h 12.9 km/h 57% 0 mm
14:19 26.8 °C 17.6 °C 1009.4 hPa SW 4.8 km/h 11.3 km/h 57% 0 mm
14:24 26.7 °C 16.9 °C 1009.4 hPa SW 4.8 km/h 16.1 km/h 55% 0 mm
14:29 26.7 °C 18.6 °C 1009.4 hPa South 4.8 km/h 16.1 km/h 61% 0 mm
14:34 26.5 °C 16.4 °C 1009.4 hPa SSW 4.8 km/h 14.5 km/h 54% 0 mm
14:39 26.4 °C 16.1 °C 1009.4 hPa SW 4.8 km/h 17.7 km/h 53% 0 mm
14:44 26.1 °C 16.9 °C 1009.4 hPa SW 6.4 km/h 17.7 km/h 57% 0 mm
14:49 26.4 °C 16.1 °C 1009 hPa SSW 4.8 km/h 14.5 km/h 53% 0 mm
14:54 26.8 °C 16.4 °C 1009 hPa WSW 4.8 km/h 14.5 km/h 53% 0 mm
14:59 26.9 °C 16.6 °C 1009 hPa WSW 6.4 km/h 14.5 km/h 53% 0 mm
15:04 27.2 °C 16.2 °C 1009 hPa South 4.8 km/h 12.9 km/h 51% 0 mm
15:09 27.2 °C 16.5 °C 1009 hPa SSW 4.8 km/h 14.5 km/h 52% 0 mm
15:14 27.3 °C 17.5 °C 1009 hPa SSW 3.2 km/h 14.5 km/h 55% 0 mm
15:19 27.6 °C 16.3 °C 1009 hPa WSW 4.8 km/h 16.1 km/h 50% 0 mm
15:24 27.6 °C 16.8 °C 1009 hPa West 6.4 km/h 16.1 km/h 52% 0 mm
15:29 27.4 °C 17.1 °C 1009 hPa SW 6.4 km/h 19.3 km/h 53% 0 mm
15:34 27.3 °C 16.6 °C 1009 hPa WSW 4.8 km/h 19.3 km/h 52% 0 mm
15:39 27.2 °C 17.1 °C 1009 hPa West 6.4 km/h 19.3 km/h 54% 0 mm
15:44 27.5 °C 17.4 °C 1009 hPa West 3.2 km/h 19.3 km/h 54% 0 mm
15:49 27.8 °C 17.1 °C 1009 hPa SW 3.2 km/h 9.7 km/h 52% 0 mm
15:54 27.8 °C 16.4 °C 1009 hPa SW 6.4 km/h 9.7 km/h 50% 0 mm
15:59 26.9 °C 16.2 °C 1009 hPa West 1.6 km/h 16.1 km/h 52% 0 mm
16:04 26.7 °C 16 °C 1009 hPa SW 4.8 km/h 16.1 km/h 52% 0 mm
16:09 26.8 °C 16.4 °C 1009 hPa WSW 4.8 km/h 11.3 km/h 53% 0 mm
16:14 27.2 °C 17.4 °C 1009 hPa West 1.6 km/h 11.3 km/h 55% 0 mm
16:19 27.6 °C 17.7 °C 1009 hPa SW 3.2 km/h 11.3 km/h 55% 0 mm
16:24 27.7 °C 17.2 °C 1008.7 hPa NW 1.6 km/h 12.9 km/h 53% 0 mm
16:29 27.2 °C 16.5 °C 1008.7 hPa SW 3.2 km/h 12.9 km/h 52% 0 mm
16:34 26.4 °C 17.2 °C 1008.7 hPa SSW 1.6 km/h 11.3 km/h 57% 0 mm
16:39 26.1 °C 17.2 °C 1008.7 hPa West 1.6 km/h 9.7 km/h 58% 0 mm
16:44 25.8 °C 16.4 °C 1008.7 hPa WSW 4.8 km/h 11.3 km/h 56% 0 mm
16:49 25.8 °C 16.6 °C 1008.7 hPa WSW 4.8 km/h 11.3 km/h 57% 0 mm
16:54 25.7 °C 16.5 °C 1008.7 hPa WSW 1.6 km/h 9.7 km/h 57% 0 mm
16:59 25.4 °C 16.8 °C 1008.7 hPa Calm   6.4 km/h 59% 0 mm
17:04 25.2 °C 16.9 °C 1008.7 hPa WSW 1.6 km/h 4.8 km/h 60% 0 mm
17:09 25.1 °C 17.8 °C 1008.7 hPa Calm   4.8 km/h 64% 0 mm
17:14 25.1 °C 17.8 °C 1008.7 hPa WSW 1.6 km/h 4.8 km/h 64% 0 mm
17:19 25.1 °C 17.3 °C 1009 hPa WSW 1.6 km/h 6.4 km/h 62% 0 mm
17:24 25 °C 17.2 °C 1008.7 hPa Calm   8 km/h 62% 0 mm
17:29 25 °C 17.5 °C 1008.7 hPa WSW 1.6 km/h 8 km/h 63% 0 mm
17:34 25 °C 17.2 °C 1008.7 hPa WNW 3.2 km/h 11.3 km/h 62% 0 mm
17:39 24.9 °C 17.1 °C 1008.7 hPa WNW 1.6 km/h 11.3 km/h 62% 0 mm
17:44 24.7 °C 16.9 °C 1008.7 hPa SSW 1.6 km/h 4.8 km/h 62% 0 mm
17:49 24.6 °C 17.6 °C 1008.7 hPa Calm   4.8 km/h 65% 0 mm
17:54 24.4 °C 18.6 °C 1008.7 hPa Calm   1.6 km/h 70% 0 mm
17:59 24.3 °C 18.7 °C 1008.7 hPa Calm     71% 0 mm
18:04 24.1 °C 18.6 °C 1008.7 hPa Calm     71% 0 mm
18:09 24.1 °C 19.1 °C 1008.7 hPa Calm     74% 0 mm
18:14 23.9 °C 19.2 °C 1008.7 hPa Calm     75% 0 mm
18:19 23.9 °C 19.2 °C 1008.7 hPa Calm     75% 0 mm
18:24 23.8 °C 19.1 °C 1008.7 hPa Calm     75% 0 mm
18:29 23.8 °C 18.9 °C 1008.7 hPa Calm   1.6 km/h 74% 0 mm
18:34 23.9 °C 18.6 °C 1008.7 hPa Calm   1.6 km/h 72% 0 mm
18:39 23.9 °C 17.7 °C 1008.7 hPa Calm   3.2 km/h 68% 0 mm
18:44 24.1 °C 18.3 °C 1008.7 hPa Calm   4.8 km/h 70% 0 mm
18:49 24.1 °C 18.5 °C 1008.7 hPa Calm   4.8 km/h 71% 0 mm
18:54 23.9 °C 18.2 °C 1009 hPa SSW 1.6 km/h 4.8 km/h 70% 0 mm
18:59 23.8 °C 18 °C 1008.7 hPa Calm   4.8 km/h 70% 0 mm
19:04 23.8 °C 18.2 °C 1009 hPa Calm   4.8 km/h 71% 0 mm
19:09 23.7 °C 17.9 °C 1009 hPa Calm   4.8 km/h 70% 0 mm
19:14 23.7 °C 18.2 °C 1009 hPa Calm   1.6 km/h 71% 0 mm
19:19 23.6 °C 17.6 °C 1009 hPa SSW 1.6 km/h 4.8 km/h 69% 0 mm
19:24 23.3 °C 17.3 °C 1009 hPa Calm   4.8 km/h 69% 0 mm
19:29 23.1 °C 18 °C 1009 hPa Calm   3.2 km/h 73% 0 mm
19:34 22.8 °C 17.7 °C 1009 hPa Calm     73% 0 mm
19:39 22.4 °C 17.6 °C 1009 hPa Calm     74% 0 mm
19:44 22.1 °C 17.4 °C 1009 hPa Calm     75% 0 mm
19:49 21.7 °C 17.4 °C 1009.4 hPa Calm     77% 0 mm
19:54 21.3 °C 17.3 °C 1009.4 hPa Calm     78% 0 mm
19:59 20.8 °C 16.8 °C 1009.4 hPa Calm     78% 0 mm
20:04 20.4 °C 16.8 °C 1009.4 hPa Calm     80% 0 mm
20:09 19.9 °C 16.6 °C 1009.4 hPa Calm     81% 0 mm
20:14 19.6 °C 16.4 °C 1009.4 hPa Calm     82% 0 mm
20:19 19.3 °C 16.3 °C 1009.7 hPa Calm     83% 0 mm
20:24 19 °C 16.2 °C 1009.7 hPa Calm     84% 0 mm
20:29 18.8 °C 16 °C 1009.7 hPa Calm     84% 0 mm
20:34 18.6 °C 15.8 °C 1009.7 hPa Calm     84% 0 mm
20:39 18.4 °C 15.7 °C 1009.7 hPa Calm   3.2 km/h 84% 0 mm
20:44 18.5 °C 15.6 °C 1010 hPa Calm   3.2 km/h 83% 0 mm
20:49 18.7 °C 15.4 °C 1010 hPa Calm   3.2 km/h 81% 0 mm
20:54 19.1 °C 15.6 °C 1010 hPa WSW 3.2 km/h 6.4 km/h 80% 0 mm
20:59 19.5 °C 15.4 °C 1010.4 hPa WSW 1.6 km/h 6.4 km/h 77% 0 mm
21:04 19.8 °C 15.6 °C 1010.4 hPa Calm   3.2 km/h 77% 0 mm
21:09 19.8 °C 15.5 °C 1010.4 hPa Calm   6.4 km/h 76% 0 mm
21:14 19.8 °C 15.5 °C 1010.4 hPa Calm   6.4 km/h 76% 0 mm
21:19 19.7 °C 15.6 °C 1010.4 hPa Calm   1.6 km/h 77% 0 mm
21:24 19.5 °C 15.6 °C 1010.4 hPa Calm   1.6 km/h 78% 0 mm
21:29 19.2 °C 15.7 °C 1010.4 hPa Calm     80% 0 mm
21:34 19 °C 15.7 °C 1010.4 hPa Calm     81% 0 mm
21:39 18.9 °C 15.6 °C 1010.4 hPa Calm     81% 0 mm
21:44 18.7 °C 15.6 °C 1010.4 hPa Calm     82% 0 mm
21:49 18.6 °C 15.6 °C 1010.4 hPa Calm     83% 0 mm
21:54 18.3 °C 15.6 °C 1010.4 hPa Calm     84% 0 mm
21:59 18.1 °C 15.3 °C 1010.4 hPa Calm     84% 0 mm
22:04 17.8 °C 15.3 °C 1010.4 hPa Calm     85% 0 mm
22:09 17.8 °C 15.4 °C 1010.4 hPa Calm     86% 0 mm
22:14 17.7 °C 15.5 °C 1010.4 hPa Calm     87% 0 mm
22:19 17.6 °C 15.4 °C 1010.4 hPa Calm     87% 0 mm
22:24 17.5 °C 15.5 °C 1010.4 hPa Calm     88% 0 mm
22:29 17.4 °C 15.4 °C 1010.7 hPa Calm     88% 0 mm
22:34 17.3 °C 15.5 °C 1010.4 hPa Calm     89% 0 mm
22:39 17.3 °C 15.5 °C 1010.4 hPa Calm     89% 0 mm
22:44 17.3 °C 15.4 °C 1010.7 hPa Calm     89% 0 mm
22:49 17.2 °C 15.5 °C 1010.4 hPa Calm     90% 0 mm
22:54 17.2 °C 15.5 °C 1010.4 hPa Calm     90% 0 mm
22:59 17.1 °C 15.4 °C 1010.4 hPa Calm     90% 0 mm
23:04 17.1 °C 15.6 °C 1010.4 hPa Calm     91% 0 mm
23:09 17 °C 15.5 °C 1010.4 hPa Calm     91% 0 mm
23:14 16.9 °C 15.4 °C 1010.4 hPa Calm     91% 0 mm
23:19 16.8 °C 15.3 °C 1010.4 hPa Calm     91% 0 mm
23:24 16.7 °C 15.2 °C 1010.4 hPa Calm     91% 0 mm
23:29 16.7 °C 15.2 °C 1010.4 hPa Calm     91% 0 mm
23:34 16.6 °C 15.3 °C 1010.4 hPa Calm     92% 0 mm
23:40 16.7 °C 15.4 °C 1010.4 hPa Calm     92% 0 mm
23:49 17 °C 16 °C 1010.4 hPa Calm     94% 0 mm
23:54 16.9 °C 16 °C 1010.4 hPa Calm     94% 0 mm
Westford Weather
Compliments of Weather Underground

 
 
Current Radar Loop:

Copyright © WestfordWeather.net 2007-2014. All rights reserved.